Weather at Gogar Airport

Public forecast

Using degrees Celsius for public forecast. Weather courtesy of forecast.io.

Closest aviation weather report (METAR) to Gogar Airport

Closest report is Nakuru Airport, 19.3 nm (35.8 km) ESE.

2024/07/24 14:00 (retrieved 1 hour ago)

HKNK 241400Z 36010KT 9999 FEW024 24/13

Closest aviation forecast (TAF) to Gogar Airport

Closest forecast is Eldoret International Airport, 51.4 nm (95.2 km) NW.

2024/07/24 12:18 (retrieved 3 hours ago)

TAF TAF HKEL 241100Z 2412/2518 32008KT 9999 FEW022CB BKN023 TEMPO 2413/2417 VRB10KT -TSRA BKN080 BECMG 2420/2423 VRB03KT NSW SCT018 BKN080 BECMG 2508/2511 31010KT BKN023 TEMPO 2513/2517 VRB10KT -TSRA FEW019CB SCT020 BKN080